sensor_id;sensor_type;location;lat;lon;timestamp;P1;durP1;ratioP1;P2;durP2;ratioP2
13953;SDS011;7049;49.444;8.522;2023-04-28T00:02:19;0.97;;;0.97;;
13953;SDS011;7049;49.444;8.522;2023-04-28T00:07:22;1.53;;;1.43;;
13953;SDS011;7049;49.444;8.522;2023-04-28T00:12:24;1.17;;;1.13;;
13953;SDS011;7049;49.444;8.522;2023-04-28T00:17:25;1.93;;;1.30;;
13953;SDS011;7049;49.444;8.522;2023-04-28T00:22:28;3.60;;;1.20;;
13953;SDS011;7049;49.444;8.522;2023-04-28T00:27:31;3.13;;;1.30;;
13953;SDS011;7049;49.444;8.522;2023-04-28T00:32:32;1.00;;;1.00;;
13953;SDS011;7049;49.444;8.522;2023-04-28T00:37:36;2.73;;;1.57;;
13953;SDS011;7049;49.444;8.522;2023-04-28T00:42:37;0.80;;;0.70;;
13953;SDS011;7049;49.444;8.522;2023-04-28T00:47:39;0.90;;;0.90;;
13953;SDS011;7049;49.444;8.522;2023-04-28T00:52:43;2.97;;;1.30;;
13953;SDS011;7049;49.444;8.522;2023-04-28T00:57:45;0.90;;;0.90;;
13953;SDS011;7049;49.444;8.522;2023-04-28T01:02:46;1.10;;;1.10;;
13953;SDS011;7049;49.444;8.522;2023-04-28T01:07:49;0.93;;;0.93;;
13953;SDS011;7049;49.444;8.522;2023-04-28T01:12:51;1.30;;;1.23;;
13953;SDS011;7049;49.444;8.522;2023-04-28T01:17:52;1.27;;;1.17;;
13953;SDS011;7049;49.444;8.522;2023-04-28T01:22:55;1.17;;;1.10;;
13953;SDS011;7049;49.444;8.522;2023-04-28T01:27:57;1.30;;;1.20;;
13953;SDS011;7049;49.444;8.522;2023-04-28T01:32:59;1.43;;;1.03;;
13953;SDS011;7049;49.444;8.522;2023-04-28T01:38:00;0.57;;;0.57;;
13953;SDS011;7049;49.444;8.522;2023-04-28T01:43:03;0.83;;;0.63;;
13953;SDS011;7049;49.444;8.522;2023-04-28T01:48:04;1.63;;;0.77;;
13953;SDS011;7049;49.444;8.522;2023-04-28T01:53:06;0.77;;;0.77;;
13953;SDS011;7049;49.444;8.522;2023-04-28T01:58:09;4.07;;;1.43;;
13953;SDS011;7049;49.444;8.522;2023-04-28T02:03:10;0.93;;;0.93;;
13953;SDS011;7049;49.444;8.522;2023-04-28T02:08:11;0.90;;;0.90;;
13953;SDS011;7049;49.444;8.522;2023-04-28T02:13:14;5.27;;;0.80;;
13953;SDS011;7049;49.444;8.522;2023-04-28T02:18:16;0.93;;;0.93;;
13953;SDS011;7049;49.444;8.522;2023-04-28T02:23:18;0.50;;;0.50;;
13953;SDS011;7049;49.444;8.522;2023-04-28T02:28:20;1.30;;;1.17;;
13953;SDS011;7049;49.444;8.522;2023-04-28T02:33:22;0.77;;;0.77;;
13953;SDS011;7049;49.444;8.522;2023-04-28T02:38:23;1.43;;;1.33;;
13953;SDS011;7049;49.444;8.522;2023-04-28T02:43:26;0.93;;;0.93;;
13953;SDS011;7049;49.444;8.522;2023-04-28T02:48:28;1.93;;;1.00;;
13953;SDS011;7049;49.444;8.522;2023-04-28T02:53:29;1.10;;;1.00;;
13953;SDS011;7049;49.444;8.522;2023-04-28T02:58:32;0.53;;;0.53;;
13953;SDS011;7049;49.444;8.522;2023-04-28T03:03:34;0.67;;;0.67;;
13953;SDS011;7049;49.444;8.522;2023-04-28T03:08:35;1.00;;;1.00;;
13953;SDS011;7049;49.444;8.522;2023-04-28T03:13:38;0.70;;;0.70;;
13953;SDS011;7049;49.444;8.522;2023-04-28T03:18:39;0.50;;;0.50;;
13953;SDS011;7049;49.444;8.522;2023-04-28T03:23:40;0.70;;;0.70;;
13953;SDS011;7049;49.444;8.522;2023-04-28T03:28:43;0.47;;;0.47;;
13953;SDS011;7049;49.444;8.522;2023-04-28T03:33:45;0.50;;;0.50;;
13953;SDS011;7049;49.444;8.522;2023-04-28T03:38:46;0.57;;;0.57;;
13953;SDS011;7049;49.444;8.522;2023-04-28T03:43:49;0.83;;;0.83;;
13953;SDS011;7049;49.444;8.522;2023-04-28T03:48:51;0.83;;;0.83;;
13953;SDS011;7049;49.444;8.522;2023-04-28T03:53:52;1.37;;;1.27;;
13953;SDS011;7049;49.444;8.522;2023-04-28T03:58:55;0.73;;;0.73;;
13953;SDS011;7049;49.444;8.522;2023-04-28T04:03:56;0.43;;;0.40;;
13953;SDS011;7049;49.444;8.522;2023-04-28T04:08:58;0.80;;;0.80;;
13953;SDS011;7049;49.444;8.522;2023-04-28T04:14:00;0.47;;;0.40;;
13953;SDS011;7049;49.444;8.522;2023-04-28T04:19:02;0.43;;;0.43;;
13953;SDS011;7049;49.444;8.522;2023-04-28T04:24:03;0.70;;;0.70;;
13953;SDS011;7049;49.444;8.522;2023-04-28T04:29:08;0.67;;;0.67;;
13953;SDS011;7049;49.444;8.522;2023-04-28T04:34:09;0.70;;;0.70;;
13953;SDS011;7049;49.444;8.522;2023-04-28T04:39:11;1.40;;;1.30;;
13953;SDS011;7049;49.444;8.522;2023-04-28T04:44:14;0.40;;;0.40;;
13953;SDS011;7049;49.444;8.522;2023-04-28T04:49:15;0.50;;;0.50;;
13953;SDS011;7049;49.444;8.522;2023-04-28T04:54:17;0.50;;;0.50;;
13953;SDS011;7049;49.444;8.522;2023-04-28T04:59:19;0.70;;;0.70;;
13953;SDS011;7049;49.444;8.522;2023-04-28T05:04:21;0.67;;;0.67;;
13953;SDS011;7049;49.444;8.522;2023-04-28T05:09:22;0.60;;;0.60;;
13953;SDS011;7049;49.444;8.522;2023-04-28T05:14:25;0.50;;;0.50;;
13953;SDS011;7049;49.444;8.522;2023-04-28T05:19:26;1.00;;;0.77;;
13953;SDS011;7049;49.444;8.522;2023-04-28T05:24:28;1.93;;;0.93;;
13953;SDS011;7049;49.444;8.522;2023-04-28T05:29:30;1.97;;;0.87;;
13953;SDS011;7049;49.444;8.522;2023-04-28T05:34:32;1.37;;;0.83;;
13953;SDS011;7049;49.444;8.522;2023-04-28T05:39:33;1.13;;;1.13;;
13953;SDS011;7049;49.444;8.522;2023-04-28T05:44:36;2.67;;;1.13;;
13953;SDS011;7049;49.444;8.522;2023-04-28T05:49:38;0.40;;;0.40;;
13953;SDS011;7049;49.444;8.522;2023-04-28T05:54:39;0.70;;;0.70;;
13953;SDS011;7049;49.444;8.522;2023-04-28T05:59:42;2.63;;;1.30;;
13953;SDS011;7049;49.444;8.522;2023-04-28T06:04:43;0.93;;;0.93;;
13953;SDS011;7049;49.444;8.522;2023-04-28T06:09:45;0.67;;;0.67;;
13953;SDS011;7049;49.444;8.522;2023-04-28T06:14:47;0.77;;;0.77;;
13953;SDS011;7049;49.444;8.522;2023-04-28T06:19:51;1.03;;;1.03;;
13953;SDS011;7049;49.444;8.522;2023-04-28T06:24:53;0.83;;;0.83;;
13953;SDS011;7049;49.444;8.522;2023-04-28T06:29:56;0.70;;;0.70;;
13953;SDS011;7049;49.444;8.522;2023-04-28T06:34:57;0.90;;;0.90;;
13953;SDS011;7049;49.444;8.522;2023-04-28T06:39:59;1.70;;;1.47;;
13953;SDS011;7049;49.444;8.522;2023-04-28T06:45:02;0.83;;;0.83;;
13953;SDS011;7049;49.444;8.522;2023-04-28T06:50:03;6.60;;;1.07;;
13953;SDS011;7049;49.444;8.522;2023-04-28T06:55:06;0.63;;;0.63;;
13953;SDS011;7049;49.444;8.522;2023-04-28T07:00:11;0.63;;;0.63;;
13953;SDS011;7049;49.444;8.522;2023-04-28T07:05:13;0.80;;;0.80;;
13953;SDS011;7049;49.444;8.522;2023-04-28T07:10:17;1.33;;;1.20;;
13953;SDS011;7049;49.444;8.522;2023-04-28T07:15:19;0.63;;;0.63;;
13953;SDS011;7049;49.444;8.522;2023-04-28T07:20:22;0.67;;;0.67;;
13953;SDS011;7049;49.444;8.522;2023-04-28T07:25:24;0.60;;;0.60;;
13953;SDS011;7049;49.444;8.522;2023-04-28T07:30:27;1.20;;;1.20;;
13953;SDS011;7049;49.444;8.522;2023-04-28T07:35:28;0.90;;;0.90;;
13953;SDS011;7049;49.444;8.522;2023-04-28T07:40:30;3.60;;;0.90;;
13953;SDS011;7049;49.444;8.522;2023-04-28T07:45:33;3.90;;;1.00;;
13953;SDS011;7049;49.444;8.522;2023-04-28T07:50:38;0.93;;;0.93;;
13953;SDS011;7049;49.444;8.522;2023-04-28T07:55:39;1.20;;;1.20;;
13953;SDS011;7049;49.444;8.522;2023-04-28T08:00:44;1.20;;;1.20;;
13953;SDS011;7049;49.444;8.522;2023-04-28T08:05:46;2.43;;;1.90;;
13953;SDS011;7049;49.444;8.522;2023-04-28T08:10:48;0.90;;;0.90;;
13953;SDS011;7049;49.444;8.522;2023-04-28T08:15:51;1.77;;;1.67;;
13953;SDS011;7049;49.444;8.522;2023-04-28T08:20:52;0.93;;;0.93;;
13953;SDS011;7049;49.444;8.522;2023-04-28T08:25:54;1.60;;;1.10;;
13953;SDS011;7049;49.444;8.522;2023-04-28T08:30:56;1.57;;;1.47;;
13953;SDS011;7049;49.444;8.522;2023-04-28T08:36:00;7.63;;;0.87;;
13953;SDS011;7049;49.444;8.522;2023-04-28T08:41:02;0.77;;;0.77;;
13953;SDS011;7049;49.444;8.522;2023-04-28T08:46:06;0.90;;;0.90;;
13953;SDS011;7049;49.444;8.522;2023-04-28T08:51:08;1.43;;;1.33;;
13953;SDS011;7049;49.444;8.522;2023-04-28T08:56:10;1.23;;;1.00;;
13953;SDS011;7049;49.444;8.522;2023-04-28T09:01:18;0.90;;;0.90;;
13953;SDS011;7049;49.444;8.522;2023-04-28T09:06:31;0.73;;;0.73;;
13953;SDS011;7049;49.444;8.522;2023-04-28T09:11:55;0.70;;;0.70;;
13953;SDS011;7049;49.444;8.522;2023-04-28T09:17:11;0.93;;;0.60;;
13953;SDS011;7049;49.444;8.522;2023-04-28T09:22:15;0.70;;;0.70;;
13953;SDS011;7049;49.444;8.522;2023-04-28T09:27:24;1.23;;;1.20;;
13953;SDS011;7049;49.444;8.522;2023-04-28T09:32:34;0.63;;;0.63;;
13953;SDS011;7049;49.444;8.522;2023-04-28T09:37:37;7.00;;;0.93;;
13953;SDS011;7049;49.444;8.522;2023-04-28T10:07:04;0.90;;;0.90;;
13953;SDS011;7049;49.444;8.522;2023-04-28T10:12:24;0.87;;;0.87;;
13953;SDS011;7049;49.444;8.522;2023-04-28T10:18:45;0.57;;;0.57;;
13953;SDS011;7049;49.444;8.522;2023-04-28T10:30:18;1.00;;;1.00;;
13953;SDS011;7049;49.444;8.522;2023-04-28T11:05:18;2.43;;;0.60;;
13953;SDS011;7049;49.444;8.522;2023-04-28T11:16:13;0.67;;;0.67;;
13953;SDS011;7049;49.444;8.522;2023-04-28T11:21:27;4.03;;;0.93;;
13953;SDS011;7049;49.444;8.522;2023-04-28T11:26:29;1.50;;;0.67;;
13953;SDS011;7049;49.444;8.522;2023-04-28T11:31:31;6.80;;;0.57;;
13953;SDS011;7049;49.444;8.522;2023-04-28T11:36:35;0.80;;;0.80;;
13953;SDS011;7049;49.444;8.522;2023-04-28T11:41:38;0.53;;;0.53;;
13953;SDS011;7049;49.444;8.522;2023-04-28T11:46:44;1.07;;;1.07;;
13953;SDS011;7049;49.444;8.522;2023-04-28T11:51:50;0.70;;;0.70;;
13953;SDS011;7049;49.444;8.522;2023-04-28T11:56:53;1.00;;;1.00;;
13953;SDS011;7049;49.444;8.522;2023-04-28T12:01:56;1.33;;;0.87;;
13953;SDS011;7049;49.444;8.522;2023-04-28T12:07:01;1.10;;;0.70;;
13953;SDS011;7049;49.444;8.522;2023-04-28T12:12:04;0.60;;;0.60;;
13953;SDS011;7049;49.444;8.522;2023-04-28T12:17:07;0.60;;;0.60;;
13953;SDS011;7049;49.444;8.522;2023-04-28T12:22:09;0.80;;;0.80;;
13953;SDS011;7049;49.444;8.522;2023-04-28T12:27:15;1.10;;;1.00;;
13953;SDS011;7049;49.444;8.522;2023-04-28T12:32:35;0.50;;;0.50;;
13953;SDS011;7049;49.444;8.522;2023-04-28T12:37:40;0.60;;;0.60;;
13953;SDS011;7049;49.444;8.522;2023-04-28T12:42:42;0.70;;;0.70;;
13953;SDS011;7049;49.444;8.522;2023-04-28T12:47:43;1.13;;;1.13;;
13953;SDS011;7049;49.444;8.522;2023-04-28T12:52:46;1.77;;;1.37;;
13953;SDS011;7049;49.444;8.522;2023-04-28T12:57:48;0.73;;;0.73;;
13953;SDS011;7049;49.444;8.522;2023-04-28T13:02:49;0.50;;;0.50;;
13953;SDS011;7049;49.444;8.522;2023-04-28T13:07:53;0.80;;;0.80;;
13953;SDS011;7049;49.444;8.522;2023-04-28T13:12:55;1.40;;;1.17;;
13953;SDS011;7049;49.444;8.522;2023-04-28T13:17:56;0.87;;;0.87;;
13953;SDS011;7049;49.444;8.522;2023-04-28T13:23:00;0.97;;;0.80;;
13953;SDS011;7049;49.444;8.522;2023-04-28T13:28:01;0.90;;;0.90;;
13953;SDS011;7049;49.444;8.522;2023-04-28T13:33:03;1.00;;;1.00;;
13953;SDS011;7049;49.444;8.522;2023-04-28T13:38:05;0.80;;;0.80;;
13953;SDS011;7049;49.444;8.522;2023-04-28T13:43:07;0.80;;;0.80;;
13953;SDS011;7049;49.444;8.522;2023-04-28T13:48:08;0.60;;;0.60;;
13953;SDS011;7049;49.444;8.522;2023-04-28T13:53:12;0.60;;;0.60;;
13953;SDS011;7049;49.444;8.522;2023-04-28T13:58:14;0.83;;;0.80;;
13953;SDS011;7049;49.444;8.522;2023-04-28T14:03:15;0.50;;;0.50;;
13953;SDS011;7049;49.444;8.522;2023-04-28T14:08:19;1.03;;;0.57;;
13953;SDS011;7049;49.444;8.522;2023-04-28T14:13:22;0.60;;;0.60;;
13953;SDS011;7049;49.444;8.522;2023-04-28T14:18:23;0.80;;;0.80;;
13953;SDS011;7049;49.444;8.522;2023-04-28T14:23:26;1.60;;;1.33;;
13953;SDS011;7049;49.444;8.522;2023-04-28T14:28:28;1.37;;;0.57;;
13953;SDS011;7049;49.444;8.522;2023-04-28T14:33:29;0.77;;;0.53;;
13953;SDS011;7049;49.444;8.522;2023-04-28T14:38:32;0.53;;;0.53;;
13953;SDS011;7049;49.444;8.522;2023-04-28T14:43:33;0.93;;;0.93;;
13953;SDS011;7049;49.444;8.522;2023-04-28T14:48:34;0.98;;;0.98;;
13953;SDS011;7049;49.444;8.522;2023-04-28T14:53:38;0.27;;;0.27;;
13953;SDS011;7049;49.444;8.522;2023-04-28T14:58:39;0.77;;;0.40;;
13953;SDS011;7049;49.444;8.522;2023-04-28T15:03:41;0.20;;;0.20;;
13953;SDS011;7049;49.444;8.522;2023-04-28T15:08:44;0.10;;;0.10;;
13953;SDS011;7049;49.444;8.522;2023-04-28T15:13:45;0.20;;;0.20;;
13953;SDS011;7049;49.444;8.522;2023-04-28T15:18:47;0.53;;;0.53;;
13953;SDS011;7049;49.444;8.522;2023-04-28T15:23:50;0.10;;;0.10;;
13953;SDS011;7049;49.444;8.522;2023-04-28T15:28:51;0.87;;;0.57;;
13953;SDS011;7049;49.444;8.522;2023-04-28T15:33:52;0.50;;;0.50;;
13953;SDS011;7049;49.444;8.522;2023-04-28T15:38:55;0.50;;;0.50;;
13953;SDS011;7049;49.444;8.522;2023-04-28T15:44:00;0.47;;;0.47;;
13953;SDS011;7049;49.444;8.522;2023-04-28T15:49:01;0.40;;;0.40;;
13953;SDS011;7049;49.444;8.522;2023-04-28T15:54:04;0.30;;;0.30;;
13953;SDS011;7049;49.444;8.522;2023-04-28T15:59:05;0.33;;;0.33;;
13953;SDS011;7049;49.444;8.522;2023-04-28T16:04:09;0.33;;;0.33;;
13953;SDS011;7049;49.444;8.522;2023-04-28T16:09:12;0.40;;;0.40;;
13953;SDS011;7049;49.444;8.522;2023-04-28T16:14:14;0.20;;;0.20;;
13953;SDS011;7049;49.444;8.522;2023-04-28T16:19:15;0.50;;;0.50;;
13953;SDS011;7049;49.444;8.522;2023-04-28T16:24:18;0.40;;;0.40;;
13953;SDS011;7049;49.444;8.522;2023-04-28T16:29:21;0.40;;;0.40;;
13953;SDS011;7049;49.444;8.522;2023-04-28T16:34:22;0.17;;;0.17;;
13953;SDS011;7049;49.444;8.522;2023-04-28T16:39:26;0.30;;;0.30;;
13953;SDS011;7049;49.444;8.522;2023-04-28T16:44:28;0.20;;;0.20;;
13953;SDS011;7049;49.444;8.522;2023-04-28T16:49:29;0.23;;;0.23;;
13953;SDS011;7049;49.444;8.522;2023-04-28T16:54:32;0.20;;;0.20;;
13953;SDS011;7049;49.444;8.522;2023-04-28T16:59:33;0.10;;;0.10;;
13953;SDS011;7049;49.444;8.522;2023-04-28T17:04:35;0.20;;;0.20;;
13953;SDS011;7049;49.444;8.522;2023-04-28T17:09:38;0.10;;;0.10;;
13953;SDS011;7049;49.444;8.522;2023-04-28T17:14:39;0.23;;;0.23;;
13953;SDS011;7049;49.444;8.522;2023-04-28T17:19:41;0.30;;;0.30;;
13953;SDS011;7049;49.444;8.522;2023-04-28T17:24:43;1.10;;;0.20;;
13953;SDS011;7049;49.444;8.522;2023-04-28T17:29:45;0.20;;;0.20;;
13953;SDS011;7049;49.444;8.522;2023-04-28T17:34:46;0.20;;;0.20;;
13953;SDS011;7049;49.444;8.522;2023-04-28T17:39:49;0.27;;;0.27;;
13953;SDS011;7049;49.444;8.522;2023-04-28T17:44:50;0.20;;;0.20;;
13953;SDS011;7049;49.444;8.522;2023-04-28T17:49:52;0.30;;;0.30;;
13953;SDS011;7049;49.444;8.522;2023-04-28T17:54:56;0.23;;;0.23;;
13953;SDS011;7049;49.444;8.522;2023-04-28T17:59:57;0.30;;;0.30;;
13953;SDS011;7049;49.444;8.522;2023-04-28T18:04:59;0.30;;;0.30;;
13953;SDS011;7049;49.444;8.522;2023-04-28T18:10:01;0.30;;;0.30;;
13953;SDS011;7049;49.444;8.522;2023-04-28T18:15:03;0.13;;;0.13;;
13953;SDS011;7049;49.444;8.522;2023-04-28T18:20:07;4.13;;;0.50;;
13953;SDS011;7049;49.444;8.522;2023-04-28T18:25:11;0.40;;;0.40;;
13953;SDS011;7049;49.444;8.522;2023-04-28T18:30:15;0.20;;;0.20;;
13953;SDS011;7049;49.444;8.522;2023-04-28T18:35:17;0.20;;;0.20;;
13953;SDS011;7049;49.444;8.522;2023-04-28T18:40:20;0.33;;;0.33;;
13953;SDS011;7049;49.444;8.522;2023-04-28T18:45:21;0.13;;;0.13;;
13953;SDS011;7049;49.444;8.522;2023-04-28T18:50:39;1.20;;;0.60;;
13953;SDS011;7049;49.444;8.522;2023-04-28T19:07:05;0.67;;;0.67;;
13953;SDS011;7049;49.444;8.522;2023-04-28T19:12:20;0.60;;;0.60;;
13953;SDS011;7049;49.444;8.522;2023-04-28T19:17:52;0.40;;;0.40;;
13953;SDS011;7049;49.444;8.522;2023-04-28T19:24:07;0.47;;;0.47;;
13953;SDS011;7049;49.444;8.522;2023-04-28T19:29:21;0.17;;;0.17;;
13953;SDS011;7049;49.444;8.522;2023-04-28T19:34:24;0.20;;;0.20;;
13953;SDS011;7049;49.444;8.522;2023-04-28T19:39:25;0.33;;;0.33;;
13953;SDS011;7049;49.444;8.522;2023-04-28T19:44:27;0.50;;;0.50;;
13953;SDS011;7049;49.444;8.522;2023-04-28T19:49:30;0.60;;;0.60;;
13953;SDS011;7049;49.444;8.522;2023-04-28T19:54:32;0.90;;;0.50;;
13953;SDS011;7049;49.444;8.522;2023-04-28T19:59:34;0.57;;;0.57;;
13953;SDS011;7049;49.444;8.522;2023-04-28T20:04:40;1.60;;;0.63;;
13953;SDS011;7049;49.444;8.522;2023-04-28T20:09:42;0.30;;;0.30;;
13953;SDS011;7049;49.444;8.522;2023-04-28T20:16:34;0.13;;;0.13;;
13953;SDS011;7049;49.444;8.522;2023-04-28T20:20:52;0.87;;;0.87;;
13953;SDS011;7049;49.444;8.522;2023-04-28T20:32:35;0.70;;;0.70;;
13953;SDS011;7049;49.444;8.522;2023-04-28T20:44:24;0.70;;;0.70;;
13953;SDS011;7049;49.444;8.522;2023-04-28T20:49:45;0.97;;;0.93;;
13953;SDS011;7049;49.444;8.522;2023-04-28T20:55:39;0.53;;;0.53;;
13953;SDS011;7049;49.444;8.522;2023-04-28T21:01:00;0.70;;;0.70;;
13953;SDS011;7049;49.444;8.522;2023-04-28T21:06:02;0.63;;;0.63;;
13953;SDS011;7049;49.444;8.522;2023-04-28T21:11:09;0.70;;;0.70;;
13953;SDS011;7049;49.444;8.522;2023-04-28T21:16:13;0.33;;;0.33;;
13953;SDS011;7049;49.444;8.522;2023-04-28T21:21:15;0.63;;;0.63;;
13953;SDS011;7049;49.444;8.522;2023-04-28T21:26:17;0.20;;;0.20;;
13953;SDS011;7049;49.444;8.522;2023-04-28T21:31:22;0.33;;;0.33;;
13953;SDS011;7049;49.444;8.522;2023-04-28T21:36:24;0.50;;;0.50;;
13953;SDS011;7049;49.444;8.522;2023-04-28T21:41:27;0.40;;;0.40;;
13953;SDS011;7049;49.444;8.522;2023-04-28T21:46:30;0.30;;;0.30;;
13953;SDS011;7049;49.444;8.522;2023-04-28T21:51:31;0.40;;;0.40;;
13953;SDS011;7049;49.444;8.522;2023-04-28T21:56:33;0.30;;;0.30;;
13953;SDS011;7049;49.444;8.522;2023-04-28T22:01:36;0.63;;;0.63;;
13953;SDS011;7049;49.444;8.522;2023-04-28T22:06:38;0.60;;;0.60;;
13953;SDS011;7049;49.444;8.522;2023-04-28T22:11:39;0.47;;;0.47;;
13953;SDS011;7049;49.444;8.522;2023-04-28T22:16:42;0.47;;;0.47;;
13953;SDS011;7049;49.444;8.522;2023-04-28T22:21:44;0.10;;;0.10;;
13953;SDS011;7049;49.444;8.522;2023-04-28T22:26:46;0.30;;;0.30;;
13953;SDS011;7049;49.444;8.522;2023-04-28T22:31:49;0.70;;;0.43;;
13953;SDS011;7049;49.444;8.522;2023-04-28T22:36:51;0.67;;;0.53;;
13953;SDS011;7049;49.444;8.522;2023-04-28T22:41:52;0.70;;;0.70;;
13953;SDS011;7049;49.444;8.522;2023-04-28T22:46:55;1.30;;;0.67;;
13953;SDS011;7049;49.444;8.522;2023-04-28T22:51:56;0.93;;;0.53;;
13953;SDS011;7049;49.444;8.522;2023-04-28T22:56:58;0.67;;;0.67;;
13953;SDS011;7049;49.444;8.522;2023-04-28T23:02:04;1.47;;;0.33;;
13953;SDS011;7049;49.444;8.522;2023-04-28T23:07:06;0.50;;;0.33;;
13953;SDS011;7049;49.444;8.522;2023-04-28T23:12:08;0.60;;;0.57;;
13953;SDS011;7049;49.444;8.522;2023-04-28T23:17:11;0.27;;;0.27;;
13953;SDS011;7049;49.444;8.522;2023-04-28T23:22:12;0.40;;;0.40;;
13953;SDS011;7049;49.444;8.522;2023-04-28T23:27:14;0.30;;;0.30;;
13953;SDS011;7049;49.444;8.522;2023-04-28T23:32:16;0.33;;;0.33;;
13953;SDS011;7049;49.444;8.522;2023-04-28T23:37:18;1.30;;;0.40;;
13953;SDS011;7049;49.444;8.522;2023-04-28T23:42:19;0.30;;;0.30;;
13953;SDS011;7049;49.444;8.522;2023-04-28T23:47:22;0.27;;;0.27;;
13953;SDS011;7049;49.444;8.522;2023-04-28T23:52:24;0.67;;;0.67;;
13953;SDS011;7049;49.444;8.522;2023-04-28T23:57:26;0.40;;;0.40;;
